createdAt,value
2023-04-17T00:03:01.957Z,2.53
2023-04-17T00:08:17.631Z,4.07
2023-04-17T00:13:33.617Z,3.92
2023-04-17T00:18:49.679Z,5.53
2023-04-17T00:24:06.083Z,3.90
2023-04-17T00:29:21.933Z,6.80
2023-04-17T00:34:38.273Z,5.55
2023-04-17T00:39:54.092Z,5.60
2023-04-17T00:45:11.456Z,5.45
2023-04-17T00:50:31.269Z,4.68
2023-04-17T00:55:51.586Z,7.30
2023-04-17T01:01:07.336Z,3.53
2023-04-17T01:06:23.139Z,2.80
2023-04-17T01:11:39.745Z,4.13
2023-04-17T01:16:55.285Z,5.22
2023-04-17T01:22:11.240Z,5.50
2023-04-17T01:27:27.199Z,2.95
2023-04-17T01:32:43.057Z,8.80
2023-04-17T01:37:58.962Z,5.93
2023-04-17T01:43:15.010Z,10.25
2023-04-17T01:48:30.898Z,4.05
2023-04-17T01:53:46.197Z,4.30
2023-04-17T01:59:02.270Z,2.65
2023-04-17T02:04:18.202Z,3.25
2023-04-17T02:09:33.917Z,2.05
2023-04-17T02:14:49.786Z,2.10
2023-04-17T02:20:09.241Z,2.95
2023-04-17T02:25:24.742Z,4.00
2023-04-17T02:30:40.282Z,6.47
2023-04-17T02:35:55.733Z,4.13
2023-04-17T02:41:11.552Z,3.42
2023-04-17T02:46:27.299Z,4.88
2023-04-17T02:51:43.417Z,6.55
2023-04-17T02:56:59.376Z,4.97
2023-04-17T03:02:15.606Z,5.05
2023-04-17T03:07:31.974Z,4.13
2023-04-17T03:12:47.942Z,4.03
2023-04-17T03:18:04.034Z,5.13
2023-04-17T03:23:19.768Z,8.15
2023-04-17T03:28:35.699Z,3.92
2023-04-17T03:33:51.979Z,3.17
2023-04-17T03:39:07.659Z,3.45
2023-04-17T03:44:23.572Z,3.45
2023-04-17T03:49:39.437Z,2.75
2023-04-17T03:54:54.925Z,6.10
2023-04-17T04:00:10.967Z,2.75
2023-04-17T04:05:26.943Z,2.95
2023-04-17T04:10:45.922Z,3.00
2023-04-17T04:16:01.560Z,7.55
2023-04-17T04:21:17.483Z,3.15
2023-04-17T04:26:33.606Z,5.80
2023-04-17T04:31:51.117Z,4.00
2023-04-17T04:37:08.333Z,6.15
2023-04-17T04:42:24.406Z,4.65
2023-04-17T04:47:41.439Z,4.75
2023-04-17T04:52:57.089Z,6.43
2023-04-17T04:58:13.062Z,7.18
2023-04-17T05:03:29.329Z,2.97
2023-04-17T05:08:45.407Z,3.70
2023-04-17T05:14:00.730Z,7.05
2023-04-17T05:19:16.630Z,2.45
2023-04-17T05:24:32.190Z,4.40
2023-04-17T05:29:47.589Z,2.60
2023-04-17T05:35:03.719Z,3.15
2023-04-17T05:40:20.089Z,2.38
2023-04-17T05:45:35.925Z,2.83
2023-04-17T05:50:51.905Z,6.18
2023-04-17T05:56:07.680Z,3.05
2023-04-17T06:01:23.076Z,2.60
2023-04-17T06:06:39.083Z,2.47
2023-04-17T06:11:54.518Z,3.22
2023-04-17T06:17:10.819Z,4.40
2023-04-17T06:22:26.683Z,6.10
2023-04-17T06:27:42.515Z,8.75
2023-04-17T06:32:58.510Z,4.07
2023-04-17T06:38:14.499Z,6.05
2023-04-17T06:43:29.820Z,3.10
2023-04-17T06:48:45.181Z,4.93
2023-04-17T06:54:00.560Z,7.68
2023-04-17T06:59:16.946Z,6.90
2023-04-17T07:04:32.572Z,7.78
2023-04-17T07:09:48.462Z,5.43
2023-04-17T07:15:04.221Z,4.30
2023-04-17T07:20:19.744Z,4.53
2023-04-17T07:25:36.795Z,4.78
2023-04-17T07:30:55.211Z,3.80
2023-04-17T07:36:12.130Z,5.35
2023-04-17T07:41:27.751Z,4.20
2023-04-17T07:46:43.290Z,7.38
2023-04-17T07:51:59.204Z,3.72
2023-04-17T07:57:15.644Z,7.78
2023-04-17T08:02:31.586Z,3.13
2023-04-17T08:07:47.534Z,11.15
2023-04-17T08:13:03.415Z,4.88
2023-04-17T08:18:18.811Z,3.78
2023-04-17T08:23:34.302Z,3.88
2023-04-17T08:28:50.107Z,3.83
2023-04-17T08:34:13.575Z,4.45
2023-04-17T08:39:30.484Z,4.90
2023-04-17T08:44:46.618Z,2.75
2023-04-17T08:50:13.575Z,4.22
2023-04-17T08:55:30.293Z,4.72
2023-04-17T09:00:46.047Z,11.43
2023-04-17T09:06:01.773Z,7.05
2023-04-17T09:11:18.083Z,4.25
2023-04-17T09:16:35.465Z,4.45
2023-04-17T09:21:51.221Z,5.50
2023-04-17T09:27:26.908Z,6.05
2023-04-17T09:32:43.284Z,3.85
2023-04-17T09:38:01.617Z,5.63
2023-04-17T09:43:18.141Z,3.03
2023-04-17T09:48:33.825Z,12.48
2023-04-17T09:53:49.470Z,3.47
2023-04-17T09:59:06.990Z,2.92
2023-04-17T10:04:23.082Z,3.63
2023-04-17T10:09:41.786Z,5.50
2023-04-17T10:14:58.324Z,1.63
2023-04-17T10:20:23.718Z,4.65
2023-04-17T10:25:39.904Z,4.18
2023-04-17T10:30:55.873Z,2.45
2023-04-17T10:36:40.935Z,2.92
2023-04-17T10:42:06.817Z,3.15
2023-04-17T10:47:22.813Z,2.90
2023-04-17T10:52:42.318Z,7.07
2023-04-17T10:58:13.230Z,5.13
2023-04-17T11:03:31.136Z,6.38
2023-04-17T11:08:50.097Z,2.97
2023-04-17T11:14:12.798Z,2.58
2023-04-17T11:19:32.338Z,2.88
2023-04-17T11:24:50.826Z,3.30
2023-04-17T11:30:08.089Z,6.20
2023-04-17T11:35:34.798Z,1.55
2023-04-17T11:41:00.695Z,3.75
2023-04-17T11:46:19.540Z,4.53
2023-04-17T11:51:35.933Z,2.20
2023-04-17T11:57:13.456Z,2.80
2023-04-17T12:02:34.257Z,1.27
2023-04-17T12:13:18.863Z,0.70
2023-04-17T12:18:35.006Z,0.80
2023-04-17T12:23:51.635Z,0.70
2023-04-17T12:29:07.773Z,1.20
2023-04-17T12:34:23.958Z,0.90
2023-04-17T12:39:40.741Z,0.60
2023-04-17T12:44:56.607Z,5.88
2023-04-17T12:50:13.726Z,0.65
2023-04-17T12:55:29.324Z,0.47
2023-04-17T13:00:45.619Z,3.25
2023-04-17T13:06:01.853Z,1.58
2023-04-17T13:11:17.244Z,1.60
2023-04-17T13:16:33.130Z,0.82
2023-04-17T13:21:51.971Z,0.93
2023-04-17T13:27:09.998Z,1.27
2023-04-17T13:32:25.807Z,2.47
2023-04-17T13:37:41.852Z,1.75
2023-04-17T13:42:57.782Z,0.70
2023-04-17T13:48:14.300Z,0.82
2023-04-17T13:53:30.085Z,3.83
2023-04-17T13:58:46.023Z,1.27
2023-04-17T14:04:01.889Z,1.83
2023-04-17T14:09:18.124Z,1.45
2023-04-17T14:14:33.789Z,4.22
2023-04-17T14:19:49.637Z,1.25
2023-04-17T14:25:06.194Z,4.32
2023-04-17T14:30:22.255Z,0.98
2023-04-17T14:35:40.255Z,2.88
2023-04-17T14:40:56.070Z,0.70
2023-04-17T14:46:12.337Z,2.17
2023-04-17T14:51:30.442Z,0.80
2023-04-17T14:56:46.799Z,0.60
2023-04-17T15:02:02.826Z,4.00
2023-04-17T15:07:18.768Z,0.90
2023-04-17T15:12:34.747Z,0.65
2023-04-17T15:17:50.186Z,1.58
2023-04-17T15:23:06.053Z,1.05
2023-04-17T15:28:22.258Z,1.08
2023-04-17T15:33:38.751Z,2.35
2023-04-17T15:38:54.456Z,2.38
2023-04-17T15:44:10.794Z,4.95
2023-04-17T15:49:26.834Z,2.20
2023-04-17T15:54:42.766Z,3.95
2023-04-17T15:59:58.256Z,4.03
2023-04-17T16:05:15.337Z,2.25
2023-04-17T16:10:31.127Z,1.25
2023-04-17T16:15:46.931Z,2.47
2023-04-17T16:21:03.604Z,1.20
2023-04-17T16:26:19.733Z,1.63
2023-04-17T16:31:35.941Z,4.93
2023-04-17T16:36:51.937Z,1.80
2023-04-17T16:42:07.951Z,2.28
2023-04-17T16:47:23.858Z,1.92
2023-04-17T16:52:43.216Z,6.40
2023-04-17T16:58:00.555Z,7.15
2023-04-17T17:03:17.502Z,4.95
2023-04-17T17:08:33.138Z,6.10
2023-04-17T17:13:50.589Z,6.60
2023-04-17T17:19:07.374Z,6.68
2023-04-17T17:24:23.238Z,7.53
2023-04-17T17:29:40.376Z,5.13
2023-04-17T17:34:56.013Z,5.15
2023-04-17T17:40:12.250Z,5.00
2023-04-17T17:45:28.153Z,5.43
2023-04-17T17:50:44.526Z,5.22
2023-04-17T17:56:00.172Z,6.70
2023-04-17T18:01:16.612Z,9.05
2023-04-17T18:06:32.353Z,8.77
2023-04-17T18:11:48.145Z,5.78
2023-04-17T18:17:03.925Z,14.70
2023-04-17T18:22:21.699Z,16.27
2023-04-17T18:27:37.693Z,12.45
2023-04-17T18:32:53.741Z,10.70
2023-04-17T18:38:09.245Z,8.48
2023-04-17T18:43:24.925Z,10.20
2023-04-17T18:48:40.839Z,10.77
2023-04-17T18:53:57.209Z,9.82
2023-04-17T18:59:13.249Z,11.65
2023-04-17T19:04:30.651Z,12.02
2023-04-17T19:09:46.638Z,9.05
2023-04-17T19:15:03.518Z,10.35
2023-04-17T19:20:19.803Z,13.15
2023-04-17T19:25:38.495Z,16.10
2023-04-17T19:30:54.853Z,14.65
2023-04-17T19:36:10.904Z,10.98
2023-04-17T19:41:27.541Z,12.63
2023-04-17T19:46:43.389Z,12.18
2023-04-17T19:52:01.108Z,14.32
2023-04-17T19:57:16.915Z,13.48
2023-04-17T20:02:34.900Z,15.90
2023-04-17T20:07:51.006Z,14.43
2023-04-17T20:13:06.357Z,15.90
2023-04-17T20:18:22.108Z,11.93
2023-04-17T20:23:38.034Z,15.25
2023-04-17T20:28:55.033Z,21.55
2023-04-17T20:34:11.066Z,14.73
2023-04-17T20:39:26.894Z,12.55
2023-04-17T20:44:42.738Z,19.17
2023-04-17T20:49:58.705Z,14.73
2023-04-17T20:55:14.814Z,16.80
2023-04-17T21:00:30.825Z,13.98
2023-04-17T21:05:46.699Z,13.38
2023-04-17T21:11:02.683Z,13.30
2023-04-17T21:16:18.769Z,11.27
2023-04-17T21:21:34.666Z,13.63
2023-04-17T21:26:50.551Z,12.20
2023-04-17T21:32:06.746Z,18.17
2023-04-17T21:37:22.437Z,13.82
2023-04-17T21:42:38.020Z,13.10
2023-04-17T21:47:53.516Z,18.98
2023-04-17T21:53:09.678Z,11.70
2023-04-17T21:58:25.141Z,12.48
2023-04-17T22:03:41.166Z,11.02
2023-04-17T22:08:57.068Z,9.90
2023-04-17T22:14:13.375Z,9.13
2023-04-17T22:19:29.227Z,9.65
2023-04-17T22:24:44.717Z,11.00
2023-04-17T22:30:00.188Z,8.15
2023-04-17T22:35:16.594Z,9.93
2023-04-17T22:40:32.217Z,17.95
2023-04-17T22:45:48.189Z,13.57
2023-04-17T22:51:04.193Z,8.10
2023-04-17T22:56:19.936Z,10.52
2023-04-17T23:01:35.678Z,11.23
2023-04-17T23:06:51.508Z,10.35
2023-04-17T23:12:07.449Z,8.40
2023-04-17T23:17:23.036Z,16.25
2023-04-17T23:22:38.965Z,10.02
2023-04-17T23:27:54.764Z,11.45
2023-04-17T23:33:10.532Z,6.65
2023-04-17T23:38:26.433Z,8.85
2023-04-17T23:43:41.950Z,8.40
2023-04-17T23:48:57.463Z,9.88
2023-04-17T23:54:13.516Z,7.80
2023-04-17T23:59:29.683Z,5.68
